sensor_id;sensor_type;location;lat;lon;timestamp;pressure;altitude;pressure_sealevel;temperature;humidity
72558;BME280;60583;50.094;8.748;2023-09-12T00:00:15;100011.72;;;21.39;78.67
72558;BME280;60583;50.094;8.748;2023-09-12T00:02:41;99998.44;;;21.32;78.57
72558;BME280;60583;50.094;8.748;2023-09-12T00:05:07;100009.78;;;21.44;78.73
72558;BME280;60583;50.094;8.748;2023-09-12T00:07:32;99994.34;;;21.35;78.91
72558;BME280;60583;50.094;8.748;2023-09-12T00:09:58;99997.38;;;21.28;78.98
72558;BME280;60583;50.094;8.748;2023-09-12T00:12:23;99991.16;;;21.23;78.92
72558;BME280;60583;50.094;8.748;2023-09-12T00:14:50;100006.06;;;21.25;79.29
72558;BME280;60583;50.094;8.748;2023-09-12T00:17:16;100005.00;;;21.26;79.20
72558;BME280;60583;50.094;8.748;2023-09-12T00:19:42;100007.19;;;21.19;79.65
72558;BME280;60583;50.094;8.748;2023-09-12T00:22:08;100006.34;;;21.24;79.38
72558;BME280;60583;50.094;8.748;2023-09-12T00:24:33;99987.44;;;21.09;79.56
72558;BME280;60583;50.094;8.748;2023-09-12T00:26:58;99988.78;;;21.01;79.49
72558;BME280;60583;50.094;8.748;2023-09-12T00:29:24;99977.97;;;20.96;79.91
72558;BME280;60583;50.094;8.748;2023-09-12T00:31:49;99982.00;;;20.98;79.98
72558;BME280;60583;50.094;8.748;2023-09-12T00:34:17;99932.53;;;20.63;80.13
72558;BME280;60583;50.094;8.748;2023-09-12T00:36:43;99981.75;;;20.95;80.20
72558;BME280;60583;50.094;8.748;2023-09-12T00:39:08;99989.34;;;20.93;80.28
72558;BME280;60583;50.094;8.748;2023-09-12T00:41:34;99960.41;;;20.78;80.54
72558;BME280;60583;50.094;8.748;2023-09-12T00:44:00;99976.38;;;20.80;80.77
72558;BME280;60583;50.094;8.748;2023-09-12T00:46:26;99999.94;;;20.84;81.13
72558;BME280;60583;50.094;8.748;2023-09-12T00:48:53;99981.53;;;20.81;81.06
72558;BME280;60583;50.094;8.748;2023-09-12T00:51:19;99975.84;;;20.73;81.11
72558;BME280;60583;50.094;8.748;2023-09-12T00:53:47;99983.97;;;20.73;81.68
72558;BME280;60583;50.094;8.748;2023-09-12T00:56:13;99972.31;;;20.72;81.29
72558;BME280;60583;50.094;8.748;2023-09-12T00:58:39;99983.72;;;20.69;81.64
72558;BME280;60583;50.094;8.748;2023-09-12T01:01:05;99979.94;;;20.60;82.00
72558;BME280;60583;50.094;8.748;2023-09-12T01:03:31;99969.69;;;20.42;82.23
72558;BME280;60583;50.094;8.748;2023-09-12T01:05:59;99974.00;;;20.53;81.58
72558;BME280;60583;50.094;8.748;2023-09-12T01:08:25;99963.47;;;20.42;81.72
72558;BME280;60583;50.094;8.748;2023-09-12T01:10:52;99966.19;;;20.42;81.72
72558;BME280;60583;50.094;8.748;2023-09-12T01:13:19;99958.59;;;20.39;81.87
72558;BME280;60583;50.094;8.748;2023-09-12T01:15:44;99965.06;;;20.43;81.58
72558;BME280;60583;50.094;8.748;2023-09-12T01:18:10;99962.66;;;20.41;81.97
72558;BME280;60583;50.094;8.748;2023-09-12T01:20:36;99953.72;;;20.30;82.21
72558;BME280;60583;50.094;8.748;2023-09-12T01:26:23;99977.03;;;20.31;82.33
72558;BME280;60583;50.094;8.748;2023-09-12T01:28:55;99954.25;;;20.17;82.34
72558;BME280;60583;50.094;8.748;2023-09-12T01:31:23;99949.94;;;20.11;82.32
72558;BME280;60583;50.094;8.748;2023-09-12T01:33:54;99978.63;;;20.27;82.23
72558;BME280;60583;50.094;8.748;2023-09-12T01:36:20;99954.53;;;20.21;82.56
72558;BME280;60583;50.094;8.748;2023-09-12T01:38:45;99961.84;;;20.25;82.57
72558;BME280;60583;50.094;8.748;2023-09-12T01:41:11;99950.47;;;20.18;82.31
72558;BME280;60583;50.094;8.748;2023-09-12T01:43:37;99956.41;;;20.20;82.49
72558;BME280;60583;50.094;8.748;2023-09-12T01:46:04;99946.66;;;20.19;82.42
72558;BME280;60583;50.094;8.748;2023-09-12T01:48:33;99957.75;;;20.13;83.30
72558;BME280;60583;50.094;8.748;2023-09-12T01:51:03;99950.72;;;20.12;83.02
72558;BME280;60583;50.094;8.748;2023-09-12T01:53:29;99943.16;;;20.09;82.74
72558;BME280;60583;50.094;8.748;2023-09-12T01:55:57;99934.22;;;20.08;81.80
72558;BME280;60583;50.094;8.748;2023-09-12T01:58:25;99946.41;;;20.16;81.79
72558;BME280;60583;50.094;8.748;2023-09-12T02:00:50;99945.84;;;20.19;81.47
72558;BME280;60583;50.094;8.748;2023-09-12T02:03:16;99939.09;;;20.21;81.37
72558;BME280;60583;50.094;8.748;2023-09-12T02:05:41;99930.97;;;20.06;81.95
72558;BME280;60583;50.094;8.748;2023-09-12T02:08:06;99946.41;;;20.16;81.78
72558;BME280;60583;50.094;8.748;2023-09-12T02:10:32;99949.09;;;20.11;82.33
72558;BME280;60583;50.094;8.748;2023-09-12T02:12:57;99945.59;;;20.10;82.26
72558;BME280;60583;50.094;8.748;2023-09-12T02:15:23;99945.88;;;20.04;82.98
72558;BME280;60583;50.094;8.748;2023-09-12T02:17:48;99954.78;;;19.94;82.93
72558;BME280;60583;50.094;8.748;2023-09-12T02:20:15;99967.78;;;19.97;83.62
72558;BME280;60583;50.094;8.748;2023-09-12T02:22:41;99966.41;;;19.85;83.98
72558;BME280;60583;50.094;8.748;2023-09-12T02:25:07;99968.31;;;19.79;84.27
72558;BME280;60583;50.094;8.748;2023-09-12T02:27:33;99965.59;;;19.84;84.14
72558;BME280;60583;50.094;8.748;2023-09-12T02:29:59;99968.59;;;19.83;84.29
72558;BME280;60583;50.094;8.748;2023-09-12T02:32:24;99966.69;;;19.68;84.80
72558;BME280;60583;50.094;8.748;2023-09-12T02:34:49;99962.34;;;19.72;85.13
72558;BME280;60583;50.094;8.748;2023-09-12T02:37:15;99967.75;;;19.62;85.26
72558;BME280;60583;50.094;8.748;2023-09-12T02:39:41;99969.88;;;19.45;86.10
72558;BME280;60583;50.094;8.748;2023-09-12T02:42:06;99976.09;;;19.40;86.42
72558;BME280;60583;50.094;8.748;2023-09-12T02:44:32;99956.88;;;19.42;86.13
72558;BME280;60583;50.094;8.748;2023-09-12T02:46:57;99983.94;;;19.52;86.52
72558;BME280;60583;50.094;8.748;2023-09-12T02:49:22;99967.19;;;19.55;86.63
72558;BME280;60583;50.094;8.748;2023-09-12T02:51:48;99969.88;;;19.50;87.51
72558;BME280;60583;50.094;8.748;2023-09-12T02:54:13;99962.22;;;19.32;88.90
72558;BME280;60583;50.094;8.748;2023-09-12T02:56:38;99944.53;;;18.99;90.48
72558;BME280;60583;50.094;8.748;2023-09-12T02:59:04;99955.09;;;19.00;91.39
72558;BME280;60583;50.094;8.748;2023-09-12T03:01:30;99953.47;;;18.99;91.04
72558;BME280;60583;50.094;8.748;2023-09-12T03:03:55;99969.72;;;19.09;90.42
72558;BME280;60583;50.094;8.748;2023-09-12T03:06:21;99944.56;;;19.04;90.23
72558;BME280;60583;50.094;8.748;2023-09-12T03:08:47;99955.88;;;19.01;91.36
72558;BME280;60583;50.094;8.748;2023-09-12T03:11:13;99939.94;;;18.94;91.49
72558;BME280;60583;50.094;8.748;2023-09-12T03:13:40;99938.88;;;19.00;91.08
72558;BME280;60583;50.094;8.748;2023-09-12T03:16:13;99936.75;;;19.07;90.35
72558;BME280;60583;50.094;8.748;2023-09-12T03:18:39;99929.19;;;19.15;89.98
72558;BME280;60583;50.094;8.748;2023-09-12T03:21:05;99945.47;;;19.30;89.38
72558;BME280;60583;50.094;8.748;2023-09-12T03:23:30;99938.16;;;19.30;88.83
72558;BME280;60583;50.094;8.748;2023-09-12T03:26:01;99938.44;;;19.34;88.37
72558;BME280;60583;50.094;8.748;2023-09-12T03:28:26;99951.22;;;19.43;88.13
72558;BME280;60583;50.094;8.748;2023-09-12T03:30:52;99959.03;;;19.40;88.23
72558;BME280;60583;50.094;8.748;2023-09-12T03:33:17;99948.75;;;19.37;88.44
72558;BME280;60583;50.094;8.748;2023-09-12T03:35:43;99940.66;;;19.42;88.20
72558;BME280;60583;50.094;8.748;2023-09-12T03:38:08;99939.59;;;19.48;87.89
72558;BME280;60583;50.094;8.748;2023-09-12T03:40:34;99932.78;;;19.35;88.16
72558;BME280;60583;50.094;8.748;2023-09-12T03:42:59;99942.53;;;19.46;87.64
72558;BME280;60583;50.094;8.748;2023-09-12T03:45:24;99934.72;;;19.45;87.62
72558;BME280;60583;50.094;8.748;2023-09-12T03:47:51;99929.56;;;19.38;87.35
72558;BME280;60583;50.094;8.748;2023-09-12T03:50:16;99936.34;;;19.46;87.30
72558;BME280;60583;50.094;8.748;2023-09-12T03:52:42;99935.53;;;19.45;87.61
72558;BME280;60583;50.094;8.748;2023-09-12T03:55:08;99931.47;;;19.53;87.16
72558;BME280;60583;50.094;8.748;2023-09-12T03:57:33;99909.28;;;19.46;87.05
72558;BME280;60583;50.094;8.748;2023-09-12T03:59:58;99927.16;;;19.57;86.67
72558;BME280;60583;50.094;8.748;2023-09-12T04:02:24;99914.97;;;19.44;86.82
72558;BME280;60583;50.094;8.748;2023-09-12T04:04:49;99931.75;;;19.56;86.31
72558;BME280;60583;50.094;8.748;2023-09-12T04:07:15;99912.00;;;19.41;86.75
72558;BME280;60583;50.094;8.748;2023-09-12T04:09:40;99937.69;;;19.43;86.86
72558;BME280;60583;50.094;8.748;2023-09-12T04:12:06;99920.84;;;19.36;86.83
72558;BME280;60583;50.094;8.748;2023-09-12T04:14:33;99920.06;;;19.36;86.80
72558;BME280;60583;50.094;8.748;2023-09-12T04:16:59;99938.47;;;19.44;86.63
72558;BME280;60583;50.094;8.748;2023-09-12T04:19:25;99940.13;;;19.45;86.83
72558;BME280;60583;50.094;8.748;2023-09-12T04:21:50;99948.25;;;19.55;86.85
72558;BME280;60583;50.094;8.748;2023-09-12T04:24:15;99938.25;;;19.55;86.17
72558;BME280;60583;50.094;8.748;2023-09-12T04:26:42;99947.97;;;19.61;86.29
72558;BME280;60583;50.094;8.748;2023-09-12T04:29:09;99950.16;;;19.64;86.62
72558;BME280;60583;50.094;8.748;2023-09-12T04:31:34;99938.78;;;19.57;86.49
72558;BME280;60583;50.094;8.748;2023-09-12T04:34:00;99915.78;;;19.45;85.88
72558;BME280;60583;50.094;8.748;2023-09-12T04:36:25;99930.38;;;19.54;86.25
72558;BME280;60583;50.094;8.748;2023-09-12T04:38:50;99930.13;;;19.55;86.49
72558;BME280;60583;50.094;8.748;2023-09-12T04:41:16;99910.63;;;19.38;86.36
72558;BME280;60583;50.094;8.748;2023-09-12T04:43:43;99934.72;;;19.50;86.11
72558;BME280;60583;50.094;8.748;2023-09-12T04:46:12;99947.72;;;19.58;86.00
72558;BME280;60583;50.094;8.748;2023-09-12T04:48:38;99956.38;;;19.60;86.14
72558;BME280;60583;50.094;8.748;2023-09-12T04:51:04;99958.81;;;19.61;86.11
72558;BME280;60583;50.094;8.748;2023-09-12T04:53:30;99957.44;;;19.59;85.85
72558;BME280;60583;50.094;8.748;2023-09-12T04:56:03;99973.16;;;19.72;86.23
72558;BME280;60583;50.094;8.748;2023-09-12T04:58:28;99971.81;;;19.64;86.33
72558;BME280;60583;50.094;8.748;2023-09-12T05:00:54;99978.31;;;19.68;86.44
72558;BME280;60583;50.094;8.748;2023-09-12T05:03:20;99974.81;;;19.73;86.45
72558;BME280;60583;50.094;8.748;2023-09-12T05:05:47;99970.44;;;19.67;86.33
72558;BME280;60583;50.094;8.748;2023-09-12T05:08:13;99958.56;;;19.63;86.18
72558;BME280;60583;50.094;8.748;2023-09-12T05:10:38;99963.97;;;19.73;85.95
72558;BME280;60583;50.094;8.748;2023-09-12T05:13:04;99953.94;;;19.58;86.58
72558;BME280;60583;50.094;8.748;2023-09-12T05:15:30;99950.66;;;19.46;87.06
72558;BME280;60583;50.094;8.748;2023-09-12T05:17:55;99959.38;;;19.63;86.52
72558;BME280;60583;50.094;8.748;2023-09-12T05:20:21;99946.63;;;19.59;87.08
72558;BME280;60583;50.094;8.748;2023-09-12T05:22:46;99960.19;;;19.74;86.54
72558;BME280;60583;50.094;8.748;2023-09-12T05:25:11;99965.56;;;19.69;87.05
72558;BME280;60583;50.094;8.748;2023-09-12T05:27:37;99954.75;;;19.74;86.88
72558;BME280;60583;50.094;8.748;2023-09-12T05:30:02;99968.88;;;19.86;86.50
72558;BME280;60583;50.094;8.748;2023-09-12T05:32:28;99944.22;;;19.78;87.02
72558;BME280;60583;50.094;8.748;2023-09-12T05:34:53;99954.53;;;19.86;86.76
72558;BME280;60583;50.094;8.748;2023-09-12T05:37:18;99951.00;;;19.75;86.49
72558;BME280;60583;50.094;8.748;2023-09-12T05:39:46;99956.69;;;19.84;86.11
72558;BME280;60583;50.094;8.748;2023-09-12T05:42:11;99949.09;;;19.86;85.99
72558;BME280;60583;50.094;8.748;2023-09-12T05:44:37;99952.63;;;19.86;86.20
72558;BME280;60583;50.094;8.748;2023-09-12T05:47:03;99953.66;;;19.55;86.84
72558;BME280;60583;50.094;8.748;2023-09-12T05:49:28;99961.78;;;19.55;86.95
72558;BME280;60583;50.094;8.748;2023-09-12T05:51:53;99954.72;;;19.54;86.83
72558;BME280;60583;50.094;8.748;2023-09-12T05:54:19;99957.44;;;19.59;86.76
72558;BME280;60583;50.094;8.748;2023-09-12T05:56:44;99962.31;;;19.62;86.50
72558;BME280;60583;50.094;8.748;2023-09-12T05:59:10;99968.56;;;19.72;85.88
72558;BME280;60583;50.094;8.748;2023-09-12T06:01:35;99955.88;;;19.73;85.07
72558;BME280;60583;50.094;8.748;2023-09-12T06:04:01;99969.41;;;19.83;84.50
72558;BME280;60583;50.094;8.748;2023-09-12T06:06:27;99968.59;;;19.83;84.54
72558;BME280;60583;50.094;8.748;2023-09-12T06:08:53;99958.03;;;19.86;83.99
72558;BME280;60583;50.094;8.748;2023-09-12T06:11:19;99966.16;;;19.91;83.98
72558;BME280;60583;50.094;8.748;2023-09-12T06:13:44;99956.41;;;19.95;84.10
72558;BME280;60583;50.094;8.748;2023-09-12T06:16:09;99962.09;;;19.99;83.59
72558;BME280;60583;50.094;8.748;2023-09-12T06:18:35;99956.41;;;20.00;83.28
72558;BME280;60583;50.094;8.748;2023-09-12T06:21:00;99958.84;;;20.07;83.37
72558;BME280;60583;50.094;8.748;2023-09-12T06:23:31;99962.66;;;20.16;83.38
72558;BME280;60583;50.094;8.748;2023-09-12T06:25:56;99951.53;;;20.12;82.70
72558;BME280;60583;50.094;8.748;2023-09-12T06:28:29;99961.31;;;20.28;82.48
72558;BME280;60583;50.094;8.748;2023-09-12T06:30:55;99933.94;;;20.05;82.42
72558;BME280;60583;50.094;8.748;2023-09-12T06:33:22;99972.66;;;20.05;83.26
72558;BME280;60583;50.094;8.748;2023-09-12T06:35:49;99950.72;;;20.02;83.17
72558;BME280;60583;50.094;8.748;2023-09-12T06:38:15;99954.78;;;20.14;83.08
72558;BME280;60583;50.094;8.748;2023-09-12T06:40:42;99958.63;;;20.23;82.87
72558;BME280;60583;50.094;8.748;2023-09-12T06:43:08;99967.78;;;20.22;83.84
72558;BME280;60583;50.094;8.748;2023-09-12T06:45:33;99954.78;;;20.04;83.29
72558;BME280;60583;50.094;8.748;2023-09-12T06:48:00;99965.59;;;20.04;83.58
72558;BME280;60583;50.094;8.748;2023-09-12T06:50:26;99972.66;;;19.95;84.53
72558;BME280;60583;50.094;8.748;2023-09-12T06:52:51;99974.81;;;19.78;84.80
72558;BME280;60583;50.094;8.748;2023-09-12T06:55:16;99983.47;;;19.80;84.64
72558;BME280;60583;50.094;8.748;2023-09-12T06:57:42;99996.19;;;19.80;85.00
72558;BME280;60583;50.094;8.748;2023-09-12T07:00:07;99998.66;;;20.01;84.39
72558;BME280;60583;50.094;8.748;2023-09-12T07:02:33;99982.97;;;20.28;83.90
72558;BME280;60583;50.094;8.748;2023-09-12T07:04:59;99987.03;;;20.31;83.08
72558;BME280;60583;50.094;8.748;2023-09-12T07:07:24;99967.25;;;20.25;82.07
72558;BME280;60583;50.094;8.748;2023-09-12T07:09:49;99976.19;;;20.36;82.07
72558;BME280;60583;50.094;8.748;2023-09-12T07:12:15;99991.09;;;20.44;82.19
72558;BME280;60583;50.094;8.748;2023-09-12T07:14:40;99960.19;;;20.09;81.90
72558;BME280;60583;50.094;8.748;2023-09-12T07:17:06;99984.84;;;20.18;81.95
72558;BME280;60583;50.094;8.748;2023-09-12T07:19:31;99963.22;;;20.23;82.15
72558;BME280;60583;50.094;8.748;2023-09-12T07:21:57;99975.91;;;20.53;81.79
72558;BME280;60583;50.094;8.748;2023-09-12T07:24:25;99960.16;;;20.65;80.68
72558;BME280;60583;50.094;8.748;2023-09-12T07:26:51;99956.81;;;20.93;79.79
72558;BME280;60583;50.094;8.748;2023-09-12T07:29:17;99964.47;;;20.76;78.79
72558;BME280;60583;50.094;8.748;2023-09-12T07:31:42;99957.88;;;20.97;78.66
72558;BME280;60583;50.094;8.748;2023-09-12T07:34:07;99971.31;;;21.32;78.72
72558;BME280;60583;50.094;8.748;2023-09-12T07:36:33;99965.22;;;21.55;77.24
72558;BME280;60583;50.094;8.748;2023-09-12T07:38:58;99955.03;;;21.76;75.84
72558;BME280;60583;50.094;8.748;2023-09-12T07:41:24;99971.28;;;21.86;75.22
72558;BME280;60583;50.094;8.748;2023-09-12T07:43:50;99973.72;;;21.88;74.69
72558;BME280;60583;50.094;8.748;2023-09-12T07:46:15;99966.72;;;21.77;74.24
72558;BME280;60583;50.094;8.748;2023-09-12T07:48:40;99978.19;;;22.07;74.74
72558;BME280;60583;50.094;8.748;2023-09-12T07:51:15;99982.22;;;22.44;74.36
72558;BME280;60583;50.094;8.748;2023-09-12T07:53:43;99996.47;;;22.59;72.47
72558;BME280;60583;50.094;8.748;2023-09-12T07:56:09;99986.56;;;22.73;71.62
72558;BME280;60583;50.094;8.748;2023-09-12T07:58:35;99997.16;;;22.99;71.84
72558;BME280;60583;50.094;8.748;2023-09-12T08:01:05;99990.63;;;23.23;70.53
72558;BME280;60583;50.094;8.748;2023-09-12T08:03:32;99988.41;;;23.25;69.26
72558;BME280;60583;50.094;8.748;2023-09-12T08:05:57;99994.56;;;23.36;68.40
72558;BME280;60583;50.094;8.748;2023-09-12T08:08:23;99979.09;;;23.08;67.44
72558;BME280;60583;50.094;8.748;2023-09-12T08:10:49;99994.66;;;23.26;68.03
72558;BME280;60583;50.094;8.748;2023-09-12T08:13:14;99999.34;;;23.44;67.65
72558;BME280;60583;50.094;8.748;2023-09-12T08:15:39;100000.22;;;23.39;67.15
72558;BME280;60583;50.094;8.748;2023-09-12T08:18:05;99999.13;;;23.59;66.38
72558;BME280;60583;50.094;8.748;2023-09-12T08:20:30;99998.91;;;23.74;66.68
72558;BME280;60583;50.094;8.748;2023-09-12T08:22:56;99988.09;;;24.06;65.42
72558;BME280;60583;50.094;8.748;2023-09-12T08:25:21;99970.81;;;24.30;64.92
72558;BME280;60583;50.094;8.748;2023-09-12T08:27:47;99978.66;;;24.18;64.38
72558;BME280;60583;50.094;8.748;2023-09-12T08:30:12;99987.63;;;24.37;64.26
72558;BME280;60583;50.094;8.748;2023-09-12T08:32:39;100001.06;;;24.79;62.46
72558;BME280;60583;50.094;8.748;2023-09-12T08:35:08;99995.81;;;24.96;61.37
72558;BME280;60583;50.094;8.748;2023-09-12T08:37:34;99975.47;;;25.16;61.12
72558;BME280;60583;50.094;8.748;2023-09-12T08:39:59;99984.47;;;25.30;60.09
72558;BME280;60583;50.094;8.748;2023-09-12T08:42:26;99997.91;;;25.26;59.76
72558;BME280;60583;50.094;8.748;2023-09-12T08:44:54;99994.84;;;25.42;60.38
72558;BME280;60583;50.094;8.748;2023-09-12T08:47:22;99997.56;;;25.69;60.74
72558;BME280;60583;50.094;8.748;2023-09-12T08:49:48;99994.47;;;25.84;61.28
72558;BME280;60583;50.094;8.748;2023-09-12T08:52:13;99984.00;;;25.99;58.01
72558;BME280;60583;50.094;8.748;2023-09-12T08:54:39;99997.09;;;26.11;58.15
72558;BME280;60583;50.094;8.748;2023-09-12T08:57:08;99994.94;;;25.99;57.53
72558;BME280;60583;50.094;8.748;2023-09-12T08:59:37;99960.53;;;26.21;58.07
72558;BME280;60583;50.094;8.748;2023-09-12T09:02:03;99995.97;;;26.56;55.18
72558;BME280;60583;50.094;8.748;2023-09-12T09:04:32;99988.59;;;26.88;54.11
72558;BME280;60583;50.094;8.748;2023-09-12T09:07:00;99997.84;;;27.09;52.88
72558;BME280;60583;50.094;8.748;2023-09-12T09:09:27;99997.72;;;27.22;52.44
72558;BME280;60583;50.094;8.748;2023-09-12T09:11:55;99988.31;;;27.54;51.92
72558;BME280;60583;50.094;8.748;2023-09-12T09:14:20;99993.31;;;27.61;52.59
72558;BME280;60583;50.094;8.748;2023-09-12T09:16:46;99989.31;;;27.75;51.66
72558;BME280;60583;50.094;8.748;2023-09-12T09:19:11;99989.00;;;27.94;49.67
72558;BME280;60583;50.094;8.748;2023-09-12T09:21:38;99977.66;;;27.44;50.58
72558;BME280;60583;50.094;8.748;2023-09-12T09:24:10;99988.00;;;27.64;50.99
72558;BME280;60583;50.094;8.748;2023-09-12T09:26:51;99994.00;;;28.01;49.39
72558;BME280;60583;50.094;8.748;2023-09-12T09:29:24;99980.69;;;28.54;49.04
72558;BME280;60583;50.094;8.748;2023-09-12T09:31:50;99980.03;;;28.57;48.48
72558;BME280;60583;50.094;8.748;2023-09-12T09:34:21;99980.94;;;28.78;48.56
72558;BME280;60583;50.094;8.748;2023-09-12T09:36:49;99973.41;;;29.34;48.02
72558;BME280;60583;50.094;8.748;2023-09-12T09:39:16;99970.16;;;29.61;47.43
72558;BME280;60583;50.094;8.748;2023-09-12T09:41:42;99969.16;;;29.86;47.44
72558;BME280;60583;50.094;8.748;2023-09-12T09:44:08;99971.94;;;30.19;45.20
72558;BME280;60583;50.094;8.748;2023-09-12T09:46:37;99967.03;;;30.57;44.33
72558;BME280;60583;50.094;8.748;2023-09-12T09:49:02;99962.59;;;31.13;44.50
72558;BME280;60583;50.094;8.748;2023-09-12T09:51:29;99971.41;;;31.43;43.23
72558;BME280;60583;50.094;8.748;2023-09-12T09:53:56;99965.97;;;31.71;42.35
72558;BME280;60583;50.094;8.748;2023-09-12T09:56:24;99974.84;;;32.04;42.38
72558;BME280;60583;50.094;8.748;2023-09-12T09:58:54;99983.91;;;32.75;40.16
72558;BME280;60583;50.094;8.748;2023-09-12T10:01:27;99972.22;;;32.23;40.27
72558;BME280;60583;50.094;8.748;2023-09-12T10:03:57;99967.81;;;32.34;40.30
72558;BME280;60583;50.094;8.748;2023-09-12T10:06:23;99963.28;;;33.70;38.41
72558;BME280;60583;50.094;8.748;2023-09-12T10:08:53;99958.88;;;34.27;37.27
72558;BME280;60583;50.094;8.748;2023-09-12T10:11:22;99979.00;;;34.88;36.41
72558;BME280;60583;50.094;8.748;2023-09-12T10:13:55;99974.75;;;35.73;34.64
72558;BME280;60583;50.094;8.748;2023-09-12T10:16:27;99934.47;;;35.86;33.77
72558;BME280;60583;50.094;8.748;2023-09-12T10:19:14;99962.09;;;37.33;32.00
72558;BME280;60583;50.094;8.748;2023-09-12T10:21:46;99944.75;;;37.57;30.18
72558;BME280;60583;50.094;8.748;2023-09-12T10:24:14;99939.03;;;38.26;30.17
72558;BME280;60583;50.094;8.748;2023-09-12T10:26:42;99937.50;;;38.39;29.25
72558;BME280;60583;50.094;8.748;2023-09-12T10:29:13;99940.25;;;39.41;29.43
72558;BME280;60583;50.094;8.748;2023-09-12T10:31:39;99932.72;;;39.24;28.03
72558;BME280;60583;50.094;8.748;2023-09-12T10:34:05;99932.78;;;40.14;27.78
72558;BME280;60583;50.094;8.748;2023-09-12T10:36:36;99918.59;;;39.77;27.39
72558;BME280;60583;50.094;8.748;2023-09-12T10:39:04;99935.28;;;39.91;28.27
72558;BME280;60583;50.094;8.748;2023-09-12T10:41:30;99917.31;;;40.58;27.86
72558;BME280;60583;50.094;8.748;2023-09-12T10:43:57;99926.00;;;40.67;26.61
72558;BME280;60583;50.094;8.748;2023-09-12T10:46:23;99919.41;;;39.71;26.20
72558;BME280;60583;50.094;8.748;2023-09-12T10:48:49;99933.13;;;39.19;26.11
72558;BME280;60583;50.094;8.748;2023-09-12T10:51:16;99910.78;;;38.35;27.24
72558;BME280;60583;50.094;8.748;2023-09-12T10:53:49;99932.63;;;39.49;26.41
72558;BME280;60583;50.094;8.748;2023-09-12T10:56:17;99915.31;;;39.89;25.67
72558;BME280;60583;50.094;8.748;2023-09-12T11:01:36;99914.72;;;39.39;25.90
72558;BME280;60583;50.094;8.748;2023-09-12T11:06:53;99905.56;;;40.19;25.70
72558;BME280;60583;50.094;8.748;2023-09-12T11:09:26;99915.50;;;40.27;25.22
72558;BME280;60583;50.094;8.748;2023-09-12T11:11:57;99911.34;;;40.56;25.31
72558;BME280;60583;50.094;8.748;2023-09-12T11:14:23;99897.31;;;40.59;25.20
72558;BME280;60583;50.094;8.748;2023-09-12T11:19:45;99912.47;;;40.62;24.97
72558;BME280;60583;50.094;8.748;2023-09-12T11:22:27;99915.25;;;40.03;26.25
72558;BME280;60583;50.094;8.748;2023-09-12T11:24:54;99929.00;;;39.55;26.39
72558;BME280;60583;50.094;8.748;2023-09-12T11:27:26;99910.16;;;39.81;26.12
72558;BME280;60583;50.094;8.748;2023-09-12T11:30:03;99916.00;;;40.18;25.74
72558;BME280;60583;50.094;8.748;2023-09-12T11:32:34;99888.09;;;38.57;27.69
72558;BME280;60583;50.094;8.748;2023-09-12T11:35:05;99899.19;;;38.15;28.61
72558;BME280;60583;50.094;8.748;2023-09-12T11:37:31;99890.75;;;37.04;30.10
72558;BME280;60583;50.094;8.748;2023-09-12T11:39:58;99900.38;;;36.22;31.51
72558;BME280;60583;50.094;8.748;2023-09-12T11:42:24;99897.88;;;35.17;33.23
72558;BME280;60583;50.094;8.748;2023-09-12T11:44:53;99901.00;;;34.63;33.58
72558;BME280;60583;50.094;8.748;2023-09-12T11:47:18;99894.00;;;35.22;32.89
72558;BME280;60583;50.094;8.748;2023-09-12T11:49:45;99900.44;;;35.30;32.75
72558;BME280;60583;50.094;8.748;2023-09-12T11:52:12;99900.16;;;36.85;30.90
72558;BME280;60583;50.094;8.748;2023-09-12T11:54:39;99882.91;;;38.45;29.86
72558;BME280;60583;50.094;8.748;2023-09-12T11:57:07;99895.25;;;39.22;27.93
72558;BME280;60583;50.094;8.748;2023-09-12T11:59:33;99887.47;;;39.72;27.79
72558;BME280;60583;50.094;8.748;2023-09-12T12:02:08;99894.69;;;39.69;26.88
72558;BME280;60583;50.094;8.748;2023-09-12T12:04:35;99909.31;;;39.91;26.23
72558;BME280;60583;50.094;8.748;2023-09-12T12:07:01;99901.88;;;40.36;25.29
72558;BME280;60583;50.094;8.748;2023-09-12T12:09:28;99904.00;;;40.18;25.60
72558;BME280;60583;50.094;8.748;2023-09-12T12:11:53;99907.47;;;39.63;26.07
72558;BME280;60583;50.094;8.748;2023-09-12T12:14:19;99896.75;;;40.27;25.52
72558;BME280;60583;50.094;8.748;2023-09-12T12:16:45;99893.63;;;40.18;25.30
72558;BME280;60583;50.094;8.748;2023-09-12T12:19:12;99900.84;;;40.16;25.63
72558;BME280;60583;50.094;8.748;2023-09-12T12:21:39;99889.09;;;39.66;26.73
72558;BME280;60583;50.094;8.748;2023-09-12T12:24:07;99890.91;;;40.00;26.47
72558;BME280;60583;50.094;8.748;2023-09-12T12:26:33;99887.06;;;39.77;26.87
72558;BME280;60583;50.094;8.748;2023-09-12T12:29:04;99885.88;;;39.74;26.62
72558;BME280;60583;50.094;8.748;2023-09-12T12:31:29;99893.28;;;38.94;27.76
72558;BME280;60583;50.094;8.748;2023-09-12T12:33:56;99873.97;;;37.65;29.66
72558;BME280;60583;50.094;8.748;2023-09-12T12:36:22;99876.16;;;38.32;28.25
72558;BME280;60583;50.094;8.748;2023-09-12T12:38:49;99828.75;;;38.21;28.19
72558;BME280;60583;50.094;8.748;2023-09-12T12:41:25;99876.16;;;38.43;28.16
72558;BME280;60583;50.094;8.748;2023-09-12T12:43:51;99881.69;;;38.18;28.19
72558;BME280;60583;50.094;8.748;2023-09-12T12:46:17;99877.97;;;36.96;29.45
72558;BME280;60583;50.094;8.748;2023-09-12T12:48:45;99872.75;;;37.59;29.13
72558;BME280;60583;50.094;8.748;2023-09-12T12:51:21;99871.72;;;38.06;28.45
72558;BME280;60583;50.094;8.748;2023-09-12T12:53:55;99876.38;;;37.70;28.72
72558;BME280;60583;50.094;8.748;2023-09-12T12:56:27;99867.72;;;36.53;30.51
72558;BME280;60583;50.094;8.748;2023-09-12T12:58:57;99862.97;;;35.76;32.10
72558;BME280;60583;50.094;8.748;2023-09-12T13:01:24;99869.41;;;35.20;32.50
72558;BME280;60583;50.094;8.748;2023-09-12T13:03:50;99800.59;;;34.25;33.40
72558;BME280;60583;50.094;8.748;2023-09-12T13:06:16;99860.84;;;33.89;34.51
72558;BME280;60583;50.094;8.748;2023-09-12T13:08:46;99847.31;;;33.46;35.32